Yemelyanovo Airport
UNKL : now visible

Airfield :











YOU CAN JOIN US ON...

 
LOGIN :

Register | Disclaimer

   EN    FR    IT 

 









Legend :    VFR   Marginal VFR   IFR   Intensive IFR   Very Intensive IFR
Visi :
Ceiling :
>= 8 km
>= 3000ft
5 to 8 km
1000 to 3000 ft
1500m to 5 km
500 to 1000 ft
800 to 1500m
200 to 500 ft
< 800m
< 200 ft
Symbols :   Thunderstorms  Fog  Heavy snow  Heavy precipitations  Wind > 20 kt






- Airport Elevation : 942 ft
- IATA code : KJA


UNKL - Yemelyanovo

CURRENT METAR :
  • 151800Z 27004MPS 9999 -SN SCT020 M25/M28 Q1034 R29/410255 NOSIG RMK QFE749

EXPIRED METARs :
  • 151730Z 27003MPS 9999 -SN FEW039 M25/M28 Q1033 R29/410255 NOSIG RMK QFE749
  • 151700Z 26002MPS 9999 -SN NSC M25/M28 Q1033 R29/410255 NOSIG RMK QFE749
  • 151630Z 27004MPS CAVOK M24/M27 Q1033 R29/410255 NOSIG RMK QFE749
  • 151600Z 27004MPS CAVOK M25/M28 Q1033 R29/410255 NOSIG RMK QFE748
  • 151530Z 28003MPS CAVOK M24/M27 Q1032 R29/410255 NOSIG RMK QFE748

TAF TAF UNKL
Valid from the 15 at 18:00 until the 16 at 18:00 UTC


151655Z 1518/1618 27003MPS 3100 -SN SCT014
TEMPO 1518/1524 1000 -SN BR
FM160300 24005G12MPS 9999 SCT020CB
TEMPO 1603/1612 3100 -SHSN
BECMG 1612/1614 18003G08MPS



MET'MAP, your aeronautical weather chart ! - Copyright ORBIFLY December 2007 - Disclaimer

ORBIFLY MET'MAP TEAM :

Programming & Development : Alexandra Zaïnal
Concept & Development : Baudouin d'Aumeries
Co-Development & Prog : Marc-Olivier Méhu
Technical & hardware support : Manuel Goepfert

Contact : metmap@orbifly.com




SOURCES & CREDITS :

   NOAA       Earth
Advisory